createdAt,value
2017-12-02T00:00:05.488Z,12.17
2017-12-02T00:02:33.035Z,9.37
2017-12-02T00:05:00.622Z,8.27
2017-12-02T00:07:28.185Z,8.63
2017-12-02T00:09:55.751Z,8.60
2017-12-02T00:12:24.526Z,8.20
2017-12-02T00:14:53.706Z,7.67
2017-12-02T00:17:21.590Z,8.33
2017-12-02T00:19:51.120Z,8.00
2017-12-02T00:22:25.999Z,9.43
2017-12-02T00:24:59.113Z,9.00
2017-12-02T00:27:29.498Z,11.20
2017-12-02T00:29:57.031Z,16.33
2017-12-02T00:32:28.067Z,11.07
2017-12-02T00:34:55.620Z,15.40
2017-12-02T00:37:27.641Z,11.30
2017-12-02T00:39:55.217Z,11.40
2017-12-02T00:42:23.622Z,16.57
2017-12-02T00:44:53.723Z,20.00
2017-12-02T00:47:25.560Z,21.30
2017-12-02T00:49:54.721Z,26.73
2017-12-02T00:52:23.131Z,28.83
2017-12-02T00:54:52.278Z,24.10
2017-12-02T00:57:20.944Z,27.03
2017-12-02T00:59:49.109Z,24.57
2017-12-02T01:02:17.546Z,23.27
2017-12-02T01:04:45.920Z,28.03
2017-12-02T01:07:13.510Z,33.37
2017-12-02T01:09:41.059Z,33.50
2017-12-02T01:12:11.693Z,33.47
2017-12-02T01:14:39.383Z,34.20
2017-12-02T01:17:08.670Z,29.90
2017-12-02T01:19:40.240Z,30.23
2017-12-02T01:22:11.594Z,30.10
2017-12-02T01:24:39.153Z,29.40
2017-12-02T01:27:06.799Z,29.50
2017-12-02T01:29:34.338Z,30.00
2017-12-02T01:32:02.867Z,33.53
2017-12-02T01:34:30.887Z,34.20
2017-12-02T01:36:58.601Z,32.10
2017-12-02T01:39:27.835Z,30.60
2017-12-02T01:41:55.408Z,27.13
2017-12-02T01:44:22.947Z,27.90
2017-12-02T01:46:50.527Z,26.57
2017-12-02T01:49:18.239Z,27.57
2017-12-02T01:51:45.842Z,26.50
2017-12-02T01:54:13.390Z,24.23
2017-12-02T01:56:40.991Z,21.17
2017-12-02T01:59:08.516Z,23.60
2017-12-02T02:01:36.107Z,24.17
2017-12-02T02:04:03.672Z,24.20
2017-12-02T02:06:31.251Z,20.83
2017-12-02T02:08:58.781Z,23.70
2017-12-02T02:11:26.556Z,19.40
2017-12-02T02:13:54.086Z,25.67
2017-12-02T02:16:21.647Z,18.43
2017-12-02T02:18:49.183Z,25.40
2017-12-02T02:21:16.776Z,19.07
2017-12-02T02:23:44.320Z,20.20
2017-12-02T02:28:47.059Z,19.47
2017-12-02T02:31:16.336Z,19.70
2017-12-02T02:33:43.889Z,19.30
2017-12-02T02:36:12.329Z,19.70
2017-12-02T02:38:40.648Z,20.00
2017-12-02T02:41:08.248Z,20.27
2017-12-02T02:43:35.776Z,17.97
2017-12-02T02:46:04.999Z,18.73
2017-12-02T02:48:33.335Z,20.90
2017-12-02T02:51:00.867Z,22.10
2017-12-02T02:53:29.206Z,19.07
2017-12-02T02:55:56.740Z,19.23
2017-12-02T02:58:24.316Z,18.47
2017-12-02T03:00:53.055Z,18.73
2017-12-02T03:03:21.360Z,20.20
2017-12-02T03:05:48.904Z,19.07
2017-12-02T03:08:16.496Z,20.70
2017-12-02T03:10:44.877Z,24.80
2017-12-02T03:13:13.422Z,22.83
2017-12-02T03:15:41.773Z,21.67
2017-12-02T03:18:10.164Z,22.17
2017-12-02T03:20:39.211Z,19.87
2017-12-02T03:23:07.520Z,20.67
2017-12-02T03:25:37.179Z,20.20
2017-12-02T03:28:06.362Z,25.03
2017-12-02T03:30:33.941Z,23.30
2017-12-02T03:33:02.412Z,22.67
2017-12-02T03:35:30.753Z,21.80
2017-12-02T03:37:59.840Z,22.00
2017-12-02T03:40:28.109Z,19.67
2017-12-02T03:42:55.686Z,20.87
2017-12-02T03:45:23.298Z,20.53
2017-12-02T03:47:50.903Z,19.90
2017-12-02T03:50:18.566Z,21.27
2017-12-02T03:52:47.909Z,20.20
2017-12-02T03:55:16.272Z,20.60
2017-12-02T03:57:43.823Z,22.17
2017-12-02T04:00:11.369Z,21.90
2017-12-02T04:02:38.960Z,19.27
2017-12-02T04:05:08.297Z,21.00
2017-12-02T04:07:35.838Z,22.70
2017-12-02T04:10:03.411Z,24.23
2017-12-02T04:12:30.944Z,25.90
2017-12-02T04:15:01.889Z,29.50
2017-12-02T04:17:31.052Z,26.07
2017-12-02T04:19:58.731Z,31.87
2017-12-02T04:22:26.276Z,29.90
2017-12-02T04:24:54.696Z,30.43
2017-12-02T04:27:23.110Z,27.63
2017-12-02T04:29:50.923Z,31.33
2017-12-02T04:32:19.243Z,30.80
2017-12-02T04:34:46.811Z,33.03
2017-12-02T04:37:14.363Z,29.73
2017-12-02T04:39:42.875Z,31.20
2017-12-02T04:42:10.436Z,32.03
2017-12-02T04:44:38.049Z,28.27
2017-12-02T04:47:05.588Z,27.87
2017-12-02T04:49:33.175Z,26.23
2017-12-02T04:52:00.709Z,29.30
2017-12-02T04:54:28.288Z,31.63
2017-12-02T04:56:56.925Z,28.87
2017-12-02T04:59:26.411Z,30.23
2017-12-02T05:01:54.712Z,26.27
2017-12-02T05:04:23.588Z,29.80
2017-12-02T05:06:52.001Z,26.80
2017-12-02T05:09:22.200Z,31.40
2017-12-02T05:11:50.504Z,27.00
2017-12-02T05:14:18.964Z,25.90
2017-12-02T05:16:46.516Z,25.50
2017-12-02T05:19:14.123Z,30.30
2017-12-02T05:21:42.593Z,25.03
2017-12-02T05:24:10.184Z,30.90
2017-12-02T05:26:37.728Z,26.67
2017-12-02T05:31:40.062Z,27.97
2017-12-02T05:34:08.309Z,30.50
2017-12-02T05:36:36.635Z,28.57
2017-12-02T05:39:04.209Z,28.03
2017-12-02T05:41:31.751Z,24.60
2017-12-02T05:44:00.101Z,23.23
2017-12-02T05:46:29.439Z,33.03
2017-12-02T05:48:57.024Z,29.23
2017-12-02T05:51:26.193Z,31.60
2017-12-02T05:53:54.710Z,31.10
2017-12-02T05:56:24.775Z,27.37
2017-12-02T05:58:53.869Z,27.83
2017-12-02T06:01:23.307Z,27.77
2017-12-02T06:03:51.557Z,23.93
2017-12-02T06:06:19.102Z,29.10
2017-12-02T06:08:48.403Z,24.27
2017-12-02T06:11:15.967Z,28.17
2017-12-02T06:13:43.555Z,27.53
2017-12-02T06:16:11.113Z,30.77
2017-12-02T06:18:38.724Z,26.70
2017-12-02T06:21:07.635Z,27.10
2017-12-02T06:23:37.036Z,26.10
2017-12-02T06:26:05.439Z,30.43
2017-12-02T06:28:34.328Z,28.43
2017-12-02T06:31:02.710Z,28.90
2017-12-02T06:33:30.285Z,31.50
2017-12-02T06:35:58.628Z,33.10
2017-12-02T06:38:28.068Z,33.13
2017-12-02T06:40:56.615Z,37.83
2017-12-02T06:43:25.041Z,35.70
2017-12-02T06:45:53.349Z,37.23
2017-12-02T06:48:20.969Z,33.47
2017-12-02T06:50:49.314Z,31.97
2017-12-02T06:53:16.917Z,34.77
2017-12-02T06:55:44.475Z,41.57
2017-12-02T06:58:12.099Z,36.37
2017-12-02T07:00:40.521Z,41.50
2017-12-02T07:03:08.740Z,43.67
2017-12-02T07:05:37.856Z,49.50
2017-12-02T07:08:06.355Z,39.60
2017-12-02T07:10:36.300Z,44.97
2017-12-02T07:13:03.880Z,41.17
2017-12-02T07:15:31.420Z,39.47
2017-12-02T07:17:59.908Z,36.37
2017-12-02T07:20:28.349Z,36.83
2017-12-02T07:22:55.938Z,44.00
2017-12-02T07:25:25.103Z,38.90
2017-12-02T07:27:52.720Z,37.00
2017-12-02T07:30:22.288Z,34.93
2017-12-02T07:32:49.859Z,33.60
2017-12-02T07:35:17.447Z,38.53
2017-12-02T07:37:48.958Z,36.63
2017-12-02T07:40:18.779Z,42.17
2017-12-02T07:42:47.387Z,34.03
2017-12-02T07:45:16.645Z,38.63
2017-12-02T07:47:44.212Z,36.60
2017-12-02T07:50:11.903Z,36.73
2017-12-02T07:52:39.521Z,37.30
2017-12-02T07:55:07.831Z,34.97
2017-12-02T07:57:35.416Z,34.30
2017-12-02T08:00:03.986Z,38.27
2017-12-02T08:02:32.332Z,34.20
2017-12-02T08:04:59.910Z,34.77
2017-12-02T08:07:27.444Z,31.57
2017-12-02T08:09:55.056Z,30.00
2017-12-02T08:12:22.608Z,29.77
2017-12-02T08:14:52.298Z,36.87
2017-12-02T08:17:19.841Z,33.20
2017-12-02T08:19:48.996Z,30.13
2017-12-02T08:22:16.667Z,32.53
2017-12-02T08:24:44.281Z,35.70
2017-12-02T08:27:11.878Z,35.40
2017-12-02T08:29:41.013Z,33.87
2017-12-02T08:32:09.206Z,34.03
2017-12-02T08:34:37.978Z,74.73
2017-12-02T08:37:05.493Z,30.90
2017-12-02T08:39:33.069Z,35.47
2017-12-02T08:42:00.606Z,27.67
2017-12-02T08:44:29.860Z,31.10
2017-12-02T08:46:59.037Z,34.90
2017-12-02T08:49:26.859Z,33.00
2017-12-02T08:51:56.019Z,39.43
2017-12-02T08:54:24.619Z,33.70
2017-12-02T08:56:53.241Z,39.93
2017-12-02T08:59:20.817Z,36.10
2017-12-02T09:01:48.573Z,37.07
2017-12-02T09:04:16.930Z,41.10
2017-12-02T09:06:45.175Z,34.80
2017-12-02T09:09:13.490Z,34.83
2017-12-02T09:11:41.091Z,36.53
2017-12-02T09:14:10.285Z,30.60
2017-12-02T09:16:38.371Z,38.43
2017-12-02T09:19:06.151Z,37.57
2017-12-02T09:21:34.544Z,30.60
2017-12-02T09:24:02.325Z,31.47
2017-12-02T09:26:29.905Z,31.37
2017-12-02T09:28:58.700Z,26.97
2017-12-02T09:31:26.288Z,30.83
2017-12-02T09:33:54.088Z,31.83
2017-12-02T09:36:22.788Z,26.10
2017-12-02T09:38:51.209Z,29.83
2017-12-02T09:41:18.780Z,27.17
2017-12-02T09:43:46.338Z,27.60
2017-12-02T09:46:14.684Z,24.20
2017-12-02T09:48:42.830Z,32.07
2017-12-02T09:51:10.530Z,26.17
2017-12-02T09:53:38.325Z,25.77
2017-12-02T09:56:06.834Z,25.77
2017-12-02T09:58:35.637Z,23.17
2017-12-02T10:01:04.984Z,25.30
2017-12-02T10:03:33.295Z,24.37
2017-12-02T10:06:00.913Z,24.20
2017-12-02T10:08:28.453Z,24.30
2017-12-02T10:10:56.028Z,20.83
2017-12-02T10:13:23.568Z,22.30
2017-12-02T10:15:53.095Z,18.47
2017-12-02T10:18:22.211Z,19.13
2017-12-02T10:20:49.787Z,14.43
2017-12-02T10:23:17.326Z,11.77
2017-12-02T10:25:45.672Z,14.30
2017-12-02T10:28:14.076Z,15.43
2017-12-02T10:30:41.616Z,11.53
2017-12-02T10:33:10.370Z,14.03
2017-12-02T10:35:37.914Z,10.40
2017-12-02T10:38:05.729Z,10.33
2017-12-02T10:40:34.494Z,11.13
2017-12-02T10:43:02.065Z,8.90
2017-12-02T10:45:29.615Z,8.83
2017-12-02T10:47:59.562Z,9.53
2017-12-02T10:50:27.104Z,8.70
2017-12-02T10:52:54.677Z,9.03
2017-12-02T10:55:22.884Z,8.80
2017-12-02T10:57:50.466Z,8.30
2017-12-02T11:00:18.560Z,9.10
2017-12-02T11:02:46.179Z,7.10
2017-12-02T11:05:15.560Z,9.67
2017-12-02T11:07:43.498Z,9.90
2017-12-02T11:10:12.299Z,9.57
2017-12-02T11:12:40.818Z,8.57
2017-12-02T11:15:08.382Z,10.27
2017-12-02T11:17:35.971Z,10.90
2017-12-02T11:20:04.308Z,13.00
2017-12-02T11:22:32.441Z,13.03
2017-12-02T11:24:59.982Z,15.43
2017-12-02T11:27:27.590Z,11.30
2017-12-02T11:29:56.008Z,11.00
2017-12-02T11:32:23.602Z,10.97
2017-12-02T11:34:51.147Z,9.27
2017-12-02T11:37:19.292Z,13.77
2017-12-02T11:39:46.873Z,13.87
2017-12-02T11:42:15.852Z,13.40
2017-12-02T11:44:44.377Z,9.93
2017-12-02T11:47:13.212Z,9.10
2017-12-02T11:49:40.802Z,11.03
2017-12-02T11:52:08.937Z,10.93
2017-12-02T11:54:36.521Z,10.40
2017-12-02T11:57:04.856Z,8.40
2017-12-02T11:59:33.090Z,12.23
2017-12-02T12:02:00.627Z,8.30
2017-12-02T12:04:29.038Z,10.50
2017-12-02T12:06:58.518Z,10.70
2017-12-02T12:09:26.113Z,10.23
2017-12-02T12:11:54.258Z,9.97
2017-12-02T12:14:21.832Z,9.87
2017-12-02T12:16:49.372Z,8.93
2017-12-02T12:19:18.632Z,11.93
2017-12-02T12:21:46.188Z,11.80
2017-12-02T12:24:13.859Z,9.33
2017-12-02T12:26:41.460Z,11.40
2017-12-02T12:29:09.082Z,9.73
2017-12-02T12:31:37.620Z,10.90
2017-12-02T12:34:05.199Z,9.67
2017-12-02T12:36:32.742Z,13.70
2017-12-02T12:39:01.556Z,9.63
2017-12-02T12:41:29.103Z,12.33
2017-12-02T12:43:56.712Z,12.30
2017-12-02T12:46:25.922Z,13.60
2017-12-02T12:48:54.072Z,12.27
2017-12-02T12:51:21.620Z,12.50
2017-12-02T12:53:49.158Z,13.73
2017-12-02T12:56:16.771Z,10.53
2017-12-02T12:58:44.333Z,9.93
2017-12-02T13:01:11.975Z,12.00
2017-12-02T13:03:40.407Z,11.20
2017-12-02T13:06:08.729Z,10.00
2017-12-02T13:08:36.725Z,12.03
2017-12-02T13:11:05.198Z,11.07
2017-12-02T13:13:32.728Z,12.20
2017-12-02T13:16:00.297Z,9.73
2017-12-02T13:18:28.849Z,9.60
2017-12-02T13:20:56.444Z,9.43
2017-12-02T13:23:24.323Z,13.00
2017-12-02T13:25:51.887Z,10.40
2017-12-02T13:28:19.988Z,12.33
2017-12-02T13:30:48.392Z,10.10
2017-12-02T13:33:15.948Z,12.67
2017-12-02T13:35:43.545Z,12.53
2017-12-02T13:38:11.096Z,12.10
2017-12-02T13:40:39.525Z,11.70
2017-12-02T13:43:07.058Z,10.03
2017-12-02T13:45:34.635Z,11.33
2017-12-02T13:48:02.162Z,8.93
2017-12-02T13:50:30.515Z,12.23
2017-12-02T13:52:58.075Z,12.37
2017-12-02T13:55:25.648Z,12.20
2017-12-02T13:57:53.780Z,9.87
2017-12-02T14:00:21.365Z,11.50
2017-12-02T14:02:49.679Z,10.53
2017-12-02T14:05:17.253Z,7.17
2017-12-02T14:07:45.092Z,7.10
2017-12-02T14:10:13.431Z,10.50
2017-12-02T14:12:41.780Z,11.20
2017-12-02T14:15:09.348Z,9.07
2017-12-02T14:17:36.885Z,13.47
2017-12-02T14:20:05.562Z,9.97
2017-12-02T14:22:33.095Z,12.50
2017-12-02T14:25:00.666Z,10.60
2017-12-02T14:27:28.199Z,10.73
2017-12-02T14:29:55.771Z,13.73
2017-12-02T14:32:23.505Z,11.60
2017-12-02T14:34:51.839Z,10.63
2017-12-02T14:37:19.434Z,10.47
2017-12-02T14:39:47.024Z,10.17
2017-12-02T14:42:14.597Z,11.23
2017-12-02T14:44:42.189Z,11.40
2017-12-02T14:47:10.495Z,10.97
2017-12-02T14:49:39.194Z,13.40
2017-12-02T14:52:06.732Z,13.93
2017-12-02T14:57:08.075Z,15.13
2017-12-02T14:59:37.353Z,11.57
2017-12-02T15:02:05.677Z,13.77
2017-12-02T15:04:37.011Z,11.97
2017-12-02T15:07:05.995Z,11.77
2017-12-02T15:09:33.571Z,12.23
2017-12-02T15:12:01.104Z,11.73
2017-12-02T15:14:28.769Z,12.00
2017-12-02T15:16:57.943Z,14.33
2017-12-02T15:19:27.145Z,13.43
2017-12-02T15:21:54.675Z,11.50
2017-12-02T15:24:23.093Z,12.13
2017-12-02T15:26:50.723Z,11.60
2017-12-02T15:29:18.313Z,12.70
2017-12-02T15:31:46.512Z,12.10
2017-12-02T15:34:18.433Z,11.53
2017-12-02T15:36:48.170Z,11.43
2017-12-02T15:42:05.520Z,13.27
2017-12-02T15:44:38.839Z,18.90
2017-12-02T15:47:08.406Z,12.67
2017-12-02T15:49:36.655Z,18.50
2017-12-02T15:52:09.315Z,18.03
2017-12-02T15:54:38.487Z,18.93
2017-12-02T15:57:07.555Z,22.37
2017-12-02T15:59:36.962Z,24.00
2017-12-02T16:02:08.725Z,27.30
2017-12-02T16:04:42.099Z,31.67
2017-12-02T16:07:10.468Z,21.63
2017-12-02T16:09:40.239Z,27.43
2017-12-02T16:12:09.648Z,29.90
2017-12-02T16:14:38.922Z,28.17
2017-12-02T16:17:07.798Z,27.00
2017-12-02T16:19:35.424Z,29.50
2017-12-02T16:22:04.723Z,26.50
2017-12-02T16:24:36.014Z,23.67
2017-12-02T16:27:03.730Z,26.50
2017-12-02T16:29:32.143Z,28.07
2017-12-02T16:32:00.453Z,30.57
2017-12-02T16:34:28.063Z,29.77
2017-12-02T16:36:55.650Z,29.60
2017-12-02T16:39:23.272Z,35.77
2017-12-02T16:41:50.860Z,32.60
2017-12-02T16:44:19.130Z,33.60
2017-12-02T16:46:50.075Z,27.43
2017-12-02T16:49:19.097Z,26.70
2017-12-02T16:51:47.560Z,29.93
2017-12-02T16:54:16.252Z,39.60
2017-12-02T16:56:43.903Z,29.63
2017-12-02T16:59:12.469Z,33.57
2017-12-02T17:01:40.044Z,30.40
2017-12-02T17:04:08.248Z,34.30
2017-12-02T17:06:36.849Z,32.33
2017-12-02T17:09:04.446Z,31.07
2017-12-02T17:11:32.021Z,32.10
2017-12-02T17:13:59.647Z,29.43
2017-12-02T17:16:27.191Z,25.83
2017-12-02T17:18:55.552Z,30.93
2017-12-02T17:21:23.108Z,32.20
2017-12-02T17:23:51.187Z,30.20
2017-12-02T17:26:18.813Z,34.70
2017-12-02T17:28:47.173Z,29.23
2017-12-02T17:31:15.500Z,34.10
2017-12-02T17:33:44.327Z,28.33
2017-12-02T17:36:11.904Z,30.50
2017-12-02T17:38:39.496Z,35.57
2017-12-02T17:41:07.600Z,27.87
2017-12-02T17:43:36.778Z,26.73
2017-12-02T17:46:04.340Z,29.90
2017-12-02T17:48:31.933Z,30.07
2017-12-02T17:50:59.868Z,26.57
2017-12-02T17:53:27.452Z,27.37
2017-12-02T17:55:57.480Z,31.57
2017-12-02T17:58:25.830Z,30.87
2017-12-02T18:00:54.816Z,28.77
2017-12-02T18:03:23.199Z,31.27
2017-12-02T18:05:50.739Z,29.53
2017-12-02T18:08:18.308Z,28.90
2017-12-02T18:10:45.852Z,28.20
2017-12-02T18:13:14.313Z,32.57
2017-12-02T18:15:43.280Z,33.50
2017-12-02T18:18:12.452Z,38.67
2017-12-02T18:20:41.608Z,36.13
2017-12-02T18:23:09.943Z,34.63
2017-12-02T18:25:37.498Z,33.83
2017-12-02T18:28:05.071Z,36.33
2017-12-02T18:30:34.539Z,39.70
2017-12-02T18:33:02.134Z,28.23
2017-12-02T18:35:31.226Z,34.30
2017-12-02T18:37:58.803Z,38.53
2017-12-02T18:40:26.339Z,37.67
2017-12-02T18:42:54.832Z,39.80
2017-12-02T18:45:22.514Z,37.90
2017-12-02T18:47:50.133Z,36.53
2017-12-02T18:50:17.667Z,33.43
2017-12-02T18:52:45.237Z,31.77
2017-12-02T18:55:12.787Z,41.83
2017-12-02T18:57:41.499Z,33.00
2017-12-02T19:00:09.068Z,36.90
2017-12-02T19:02:36.650Z,32.10
2017-12-02T19:05:04.191Z,36.17
2017-12-02T19:07:35.635Z,40.03
2017-12-02T19:10:03.242Z,34.73
2017-12-02T19:12:31.504Z,34.13
2017-12-02T19:14:59.819Z,41.37
2017-12-02T19:17:27.375Z,42.67
2017-12-02T19:19:55.720Z,44.23
2017-12-02T19:22:24.264Z,48.60
2017-12-02T19:24:53.114Z,45.47
2017-12-02T19:27:21.866Z,36.37
2017-12-02T19:29:50.207Z,35.80
2017-12-02T19:32:19.540Z,33.30
2017-12-02T19:34:47.646Z,44.07
2017-12-02T19:37:15.238Z,34.87
2017-12-02T19:39:43.351Z,38.63
2017-12-02T19:42:10.929Z,29.87
2017-12-02T19:44:39.312Z,34.50
2017-12-02T19:47:06.894Z,31.23
2017-12-02T19:49:34.501Z,32.53
2017-12-02T19:52:02.098Z,32.37
2017-12-02T19:54:30.400Z,28.30
2017-12-02T19:56:58.750Z,22.77
2017-12-02T19:59:26.287Z,28.30
2017-12-02T20:01:54.632Z,26.70
2017-12-02T20:04:23.059Z,30.23
2017-12-02T20:06:50.635Z,30.73
2017-12-02T20:09:18.179Z,27.13
2017-12-02T20:11:47.354Z,27.90
2017-12-02T20:14:14.909Z,30.73
2017-12-02T20:16:42.485Z,33.90
2017-12-02T20:19:12.841Z,29.77
2017-12-02T20:21:41.783Z,33.50
2017-12-02T20:24:10.139Z,33.10
2017-12-02T20:26:38.654Z,29.37
2017-12-02T20:29:06.863Z,31.10
2017-12-02T20:31:35.220Z,25.77
2017-12-02T20:34:03.949Z,30.23
2017-12-02T20:36:33.164Z,33.77
2017-12-02T20:39:00.834Z,28.13
2017-12-02T20:41:29.625Z,32.50
2017-12-02T20:43:57.268Z,31.23
2017-12-02T20:46:24.877Z,32.53
2017-12-02T20:48:52.495Z,31.97
2017-12-02T20:51:20.033Z,30.63
2017-12-02T20:53:48.391Z,32.23
2017-12-02T20:56:16.521Z,31.53
2017-12-02T20:58:44.866Z,35.80
2017-12-02T21:01:12.996Z,38.70
2017-12-02T21:03:42.130Z,35.33
2017-12-02T21:06:09.676Z,41.87
2017-12-02T21:08:38.886Z,42.27
2017-12-02T21:11:07.195Z,36.60
2017-12-02T21:13:34.774Z,34.13
2017-12-02T21:16:02.831Z,36.60
2017-12-02T21:18:32.104Z,35.60
2017-12-02T21:21:01.061Z,28.40
2017-12-02T21:23:29.408Z,30.87
2017-12-02T21:25:57.952Z,27.33
2017-12-02T21:28:27.251Z,24.60
2017-12-02T21:30:54.801Z,33.70
2017-12-02T21:33:24.439Z,24.97
2017-12-02T21:35:51.981Z,31.57
2017-12-02T21:38:19.556Z,23.37
2017-12-02T21:40:47.895Z,25.10
2017-12-02T21:43:16.165Z,19.80
2017-12-02T21:45:45.481Z,21.23
2017-12-02T21:48:14.003Z,19.10
2017-12-02T21:50:43.542Z,22.30
2017-12-02T21:53:11.134Z,19.83
2017-12-02T21:55:38.669Z,19.90
2017-12-02T21:58:06.258Z,23.43
2017-12-02T22:00:34.779Z,21.90
2017-12-02T22:03:02.387Z,23.73
2017-12-02T22:05:30.700Z,22.93
2017-12-02T22:07:59.047Z,25.07
2017-12-02T22:10:26.611Z,25.97
2017-12-02T22:12:54.191Z,25.90
2017-12-02T22:15:22.499Z,23.90
2017-12-02T22:17:51.463Z,25.23
2017-12-02T22:20:19.909Z,23.77
2017-12-02T22:22:50.859Z,24.40
2017-12-02T22:25:18.407Z,24.97
2017-12-02T22:27:45.994Z,24.43
2017-12-02T22:30:13.548Z,23.00
2017-12-02T22:32:41.132Z,30.40
2017-12-02T22:35:09.492Z,24.30
2017-12-02T22:37:37.055Z,25.20
2017-12-02T22:40:04.602Z,26.07
2017-12-02T22:42:33.015Z,24.57
2017-12-02T22:45:01.212Z,25.07
2017-12-02T22:47:30.523Z,23.07
2017-12-02T22:50:00.264Z,20.80
2017-12-02T22:52:28.979Z,21.37
2017-12-02T22:54:57.492Z,21.70
2017-12-02T22:57:25.067Z,25.70
2017-12-02T22:59:53.401Z,22.70
2017-12-02T23:02:20.972Z,17.03
2017-12-02T23:04:49.266Z,18.83
2017-12-02T23:07:17.803Z,15.80
2017-12-02T23:09:45.361Z,17.30
2017-12-02T23:12:12.943Z,19.83
2017-12-02T23:14:40.485Z,19.77
2017-12-02T23:17:08.080Z,18.70
2017-12-02T23:19:35.618Z,17.53
2017-12-02T23:22:03.225Z,23.97
2017-12-02T23:24:30.756Z,18.13
2017-12-02T23:27:00.040Z,30.80
2017-12-02T23:29:27.580Z,18.00
2017-12-02T23:31:55.120Z,20.37
2017-12-02T23:34:22.680Z,16.67
2017-12-02T23:36:51.256Z,21.23
2017-12-02T23:39:19.856Z,24.20
2017-12-02T23:41:48.440Z,21.50
2017-12-02T23:44:15.977Z,20.10
2017-12-02T23:46:44.301Z,16.20
2017-12-02T23:49:12.565Z,17.80
2017-12-02T23:51:41.066Z,17.50
2017-12-02T23:54:10.203Z,17.47
2017-12-02T23:56:38.667Z,17.07
2017-12-02T23:59:06.233Z,17.57
